DEXCW EDDV-EDQM
Flight info
| Callsign | DEXCW |
|---|---|
| Flight time | 1h 17m |
| Altitude | 09000 |
| Route | POVEL3H POVEL Z94 KENIG DCT GOXLI DCT ALOSO DCT HOF |
| Aircraft | BE33/L-SGHRWXY/S |
Departure
| Time | 2026-05-01 08:30 |
|---|---|
| Airport | Hannover Airport (EDDV) |
Arrival
| Time | 2026-05-01 09:47 |
|---|---|
| Airport | Hof-Plauen Airport (EDQM) |
| Time | Latitude | Longitude | Altitude | Speed | Heading |
|---|---|---|---|---|---|
| 2026-05-01 07:56 | 52.46340 | 9.69593 | 173 ft | 0 kts | 186° |
| 2026-05-01 08:20 | 52.46332 | 9.69578 | 173 ft | 4 kts | 272° |
| 2026-05-01 08:20 | 52.46334 | 9.69538 | 173 ft | 5 kts | 257° |
| 2026-05-01 08:21 | 52.46317 | 9.69448 | 173 ft | 11 kts | 253° |
| 2026-05-01 08:21 | 52.46293 | 9.69325 | 173 ft | 7 kts | 248° |
| 2026-05-01 08:21 | 52.46317 | 9.69291 | 173 ft | 9 kts | 343° |
| 2026-05-01 08:21 | 52.46362 | 9.69233 | 173 ft | 10 kts | 253° |
| 2026-05-01 08:22 | 52.46330 | 9.69100 | 173 ft | 15 kts | 248° |
| 2026-05-01 08:22 | 52.46288 | 9.68929 | 173 ft | 17 kts | 246° |
| 2026-05-01 08:22 | 52.46248 | 9.68769 | 173 ft | 11 kts | 230° |
| 2026-05-01 08:22 | 52.46168 | 9.68756 | 173 ft | 14 kts | 141° |
| 2026-05-01 08:23 | 52.46087 | 9.68861 | 173 ft | 15 kts | 142° |
| 2026-05-01 08:23 | 52.46001 | 9.68968 | 173 ft | 16 kts | 143° |
| 2026-05-01 08:23 | 52.45911 | 9.69079 | 173 ft | 16 kts | 143° |
| 2026-05-01 08:23 | 52.45826 | 9.69184 | 173 ft | 13 kts | 144° |
| 2026-05-01 08:24 | 52.45746 | 9.69173 | 173 ft | 14 kts | 213° |
| 2026-05-01 08:24 | 52.45652 | 9.69144 | 173 ft | 13 kts | 192° |
| 2026-05-01 08:24 | 52.45624 | 9.69029 | 173 ft | 14 kts | 272° |
| 2026-05-01 08:24 | 52.45629 | 9.68850 | 173 ft | 18 kts | 272° |
| 2026-05-01 08:25 | 52.45635 | 9.68629 | 173 ft | 21 kts | 274° |
| 2026-05-01 08:25 | 52.45640 | 9.68465 | 173 ft | 22 kts | 272° |
| 2026-05-01 08:25 | 52.45648 | 9.68158 | 173 ft | 21 kts | 272° |
| 2026-05-01 08:25 | 52.45655 | 9.67908 | 173 ft | 21 kts | 275° |
| 2026-05-01 08:26 | 52.45640 | 9.67752 | 173 ft | 15 kts | 232° |
| 2026-05-01 08:26 | 52.45594 | 9.67704 | 174 ft | 0 kts | 189° |
| 2026-05-01 08:28 | 52.45538 | 9.67695 | 177 ft | 17 kts | 184° |
| 2026-05-01 08:29 | 52.45497 | 9.67709 | 178 ft | 4 kts | 89° |
| 2026-05-01 08:29 | 52.45497 | 9.67731 | 177 ft | 20 kts | 90° |
| 2026-05-01 08:29 | 52.45487 | 9.68353 | 238 ft | 73 kts | 93° |
| 2026-05-01 08:29 | 52.45476 | 9.69200 | 478 ft | 76 kts | 91° |
| 2026-05-01 08:30 | 52.45485 | 9.70111 | 733 ft | 84 kts | 94° |
| 2026-05-01 08:30 | 52.45421 | 9.71084 | 1029 ft | 86 kts | 98° |
| 2026-05-01 08:30 | 52.45378 | 9.72104 | 1338 ft | 92 kts | 95° |
| 2026-05-01 08:30 | 52.45375 | 9.73205 | 1630 ft | 100 kts | 95° |
| 2026-05-01 08:31 | 52.45383 | 9.74303 | 2037 ft | 95 kts | 95° |
| 2026-05-01 08:31 | 52.45390 | 9.75417 | 2343 ft | 98 kts | 95° |
| 2026-05-01 08:31 | 52.45397 | 9.76521 | 2659 ft | 98 kts | 95° |
| 2026-05-01 08:31 | 52.45401 | 9.77642 | 2970 ft | 97 kts | 96° |
| 2026-05-01 08:32 | 52.45402 | 9.78744 | 3271 ft | 98 kts | 96° |
| 2026-05-01 08:32 | 52.45393 | 9.79853 | 3587 ft | 96 kts | 96° |
| 2026-05-01 08:32 | 52.45377 | 9.80946 | 3880 ft | 97 kts | 96° |
| 2026-05-01 08:32 | 52.45359 | 9.82050 | 4170 ft | 96 kts | 96° |
| 2026-05-01 08:33 | 52.45338 | 9.83133 | 4452 ft | 98 kts | 96° |
| 2026-05-01 08:33 | 52.45315 | 9.84255 | 4752 ft | 98 kts | 96° |
| 2026-05-01 08:33 | 52.45293 | 9.85368 | 5042 ft | 98 kts | 97° |
| 2026-05-01 08:33 | 52.45262 | 9.86488 | 5306 ft | 98 kts | 97° |
| 2026-05-01 08:34 | 52.45231 | 9.87598 | 5615 ft | 98 kts | 96° |
| 2026-05-01 08:34 | 52.45199 | 9.88713 | 5903 ft | 98 kts | 96° |
| 2026-05-01 08:34 | 52.45164 | 9.89830 | 6178 ft | 98 kts | 97° |
| 2026-05-01 08:34 | 52.45127 | 9.90949 | 6463 ft | 99 kts | 97° |
| 2026-05-01 08:35 | 52.45087 | 9.92073 | 6729 ft | 99 kts | 97° |
| 2026-05-01 08:35 | 52.45042 | 9.93200 | 6974 ft | 99 kts | 99° |
| 2026-05-01 08:35 | 52.44750 | 9.94215 | 7172 ft | 104 kts | 130° |
| 2026-05-01 08:35 | 52.44335 | 9.95101 | 7503 ft | 94 kts | 122° |
| 2026-05-01 08:36 | 52.43962 | 9.96046 | 7657 ft | 102 kts | 121° |
| 2026-05-01 08:36 | 52.43602 | 9.97010 | 7960 ft | 96 kts | 120° |
| 2026-05-01 08:36 | 52.43246 | 9.97979 | 8138 ft | 103 kts | 119° |
| 2026-05-01 08:36 | 52.42884 | 9.98974 | 8408 ft | 99 kts | 118° |
| 2026-05-01 08:37 | 52.42536 | 9.99959 | 8603 ft | 103 kts | 117° |
| 2026-05-01 08:37 | 52.42178 | 10.00972 | 8832 ft | 101 kts | 117° |
| 2026-05-01 08:37 | 52.41828 | 10.01969 | 9033 ft | 102 kts | 117° |
| 2026-05-01 08:37 | 52.41469 | 10.02989 | 9252 ft | 103 kts | 117° |
| 2026-05-01 08:38 | 52.41112 | 10.03999 | 9454 ft | 104 kts | 117° |
| 2026-05-01 08:38 | 52.40724 | 10.05101 | 9468 ft | 119 kts | 117° |
| 2026-05-01 08:38 | 52.40287 | 10.06335 | 9467 ft | 130 kts | 118° |
| 2026-05-01 08:38 | 52.39815 | 10.07670 | 9426 ft | 140 kts | 118° |
| 2026-05-01 08:39 | 52.39324 | 10.09062 | 9441 ft | 141 kts | 118° |
| 2026-05-01 08:39 | 52.38832 | 10.10453 | 9445 ft | 142 kts | 118° |
| 2026-05-01 08:39 | 52.38340 | 10.11846 | 9451 ft | 144 kts | 118° |
| 2026-05-01 08:39 | 52.37835 | 10.13275 | 9446 ft | 144 kts | 118° |
| 2026-05-01 08:40 | 52.36853 | 10.16042 | 9435 ft | 137 kts | 118° |
| 2026-05-01 08:40 | 52.36375 | 10.17387 | 9429 ft | 136 kts | 118° |
| 2026-05-01 08:40 | 52.35905 | 10.18710 | 9435 ft | 133 kts | 118° |
| 2026-05-01 08:41 | 52.35437 | 10.20021 | 9439 ft | 133 kts | 118° |
| 2026-05-01 08:41 | 52.34970 | 10.21334 | 9445 ft | 134 kts | 118° |
| 2026-05-01 08:41 | 52.34504 | 10.22647 | 9443 ft | 133 kts | 118° |
| 2026-05-01 08:41 | 52.34039 | 10.23958 | 9441 ft | 133 kts | 118° |
| 2026-05-01 08:42 | 52.33575 | 10.25261 | 9438 ft | 132 kts | 118° |
| 2026-05-01 08:42 | 52.33115 | 10.26544 | 9438 ft | 132 kts | 118° |
| 2026-05-01 08:42 | 52.32653 | 10.27837 | 9438 ft | 132 kts | 118° |
| 2026-05-01 08:42 | 52.32190 | 10.29135 | 9442 ft | 132 kts | 118° |
| 2026-05-01 08:43 | 52.31729 | 10.30428 | 9441 ft | 131 kts | 118° |
| 2026-05-01 08:43 | 52.31268 | 10.31720 | 9472 ft | 131 kts | 118° |
| 2026-05-01 08:43 | 52.30808 | 10.33008 | 9469 ft | 131 kts | 118° |
| 2026-05-01 08:43 | 52.30351 | 10.34291 | 9471 ft | 131 kts | 118° |
| 2026-05-01 08:44 | 52.29893 | 10.35571 | 9470 ft | 130 kts | 118° |
| 2026-05-01 08:44 | 52.29437 | 10.36844 | 9475 ft | 130 kts | 118° |
| 2026-05-01 08:44 | 52.28981 | 10.38117 | 9469 ft | 129 kts | 118° |
| 2026-05-01 08:44 | 52.28527 | 10.39383 | 9481 ft | 129 kts | 118° |
| 2026-05-01 08:45 | 52.28080 | 10.40630 | 9474 ft | 129 kts | 118° |
| 2026-05-01 08:45 | 52.27626 | 10.41896 | 9481 ft | 129 kts | 118° |
| 2026-05-01 08:45 | 52.27170 | 10.43159 | 9481 ft | 130 kts | 118° |
| 2026-05-01 08:45 | 52.26707 | 10.44433 | 9475 ft | 131 kts | 117° |
| 2026-05-01 08:46 | 52.26246 | 10.45720 | 9475 ft | 132 kts | 117° |
| 2026-05-01 08:46 | 52.25785 | 10.47011 | 9477 ft | 132 kts | 117° |
| 2026-05-01 08:46 | 52.25324 | 10.48299 | 9475 ft | 131 kts | 117° |
| 2026-05-01 08:46 | 52.24862 | 10.49586 | 9476 ft | 131 kts | 117° |
| 2026-05-01 08:47 | 52.24400 | 10.50866 | 9477 ft | 131 kts | 117° |
| 2026-05-01 08:47 | 52.23939 | 10.52148 | 9475 ft | 131 kts | 117° |
| 2026-05-01 08:47 | 52.23478 | 10.53429 | 9475 ft | 131 kts | 117° |
| 2026-05-01 08:47 | 52.23016 | 10.54709 | 9476 ft | 131 kts | 117° |
| 2026-05-01 08:48 | 52.22556 | 10.55987 | 9478 ft | 130 kts | 117° |
| 2026-05-01 08:48 | 52.22097 | 10.57262 | 9473 ft | 131 kts | 117° |
| 2026-05-01 08:48 | 52.21636 | 10.58538 | 9473 ft | 130 kts | 117° |
| 2026-05-01 08:48 | 52.21181 | 10.59796 | 9472 ft | 130 kts | 117° |
| 2026-05-01 08:49 | 52.20721 | 10.61066 | 9469 ft | 130 kts | 117° |
| 2026-05-01 08:49 | 52.20260 | 10.62337 | 9475 ft | 130 kts | 117° |
| 2026-05-01 08:49 | 52.19801 | 10.63611 | 9471 ft | 131 kts | 117° |
| 2026-05-01 08:49 | 52.19338 | 10.64893 | 9469 ft | 131 kts | 117° |
| 2026-05-01 08:50 | 52.18873 | 10.66179 | 9469 ft | 131 kts | 117° |
| 2026-05-01 08:50 | 52.18408 | 10.67458 | 9477 ft | 131 kts | 117° |
| 2026-05-01 08:50 | 52.17944 | 10.68739 | 9465 ft | 131 kts | 117° |
| 2026-05-01 08:50 | 52.17481 | 10.70019 | 9464 ft | 131 kts | 118° |
| 2026-05-01 08:51 | 52.17022 | 10.71284 | 9465 ft | 131 kts | 118° |
| 2026-05-01 08:51 | 52.16557 | 10.72562 | 9466 ft | 131 kts | 118° |
| 2026-05-01 08:51 | 52.16093 | 10.73836 | 9464 ft | 131 kts | 117° |
| 2026-05-01 08:51 | 52.15627 | 10.75116 | 9467 ft | 132 kts | 117° |
| 2026-05-01 08:52 | 52.15161 | 10.76401 | 9468 ft | 131 kts | 117° |
| 2026-05-01 08:52 | 52.14696 | 10.77683 | 9461 ft | 132 kts | 118° |
| 2026-05-01 08:52 | 52.14228 | 10.78967 | 9464 ft | 131 kts | 118° |
| 2026-05-01 08:52 | 52.13762 | 10.80243 | 9460 ft | 131 kts | 118° |
| 2026-05-01 08:53 | 52.13303 | 10.81500 | 9455 ft | 131 kts | 117° |
| 2026-05-01 08:53 | 52.12788 | 10.82718 | 9458 ft | 131 kts | 134° |
| 2026-05-01 08:53 | 52.11992 | 10.83489 | 9452 ft | 136 kts | 146° |
| 2026-05-01 08:53 | 52.11160 | 10.84223 | 9464 ft | 136 kts | 145° |
| 2026-05-01 08:54 | 52.10331 | 10.84960 | 9461 ft | 136 kts | 146° |
| 2026-05-01 08:54 | 52.09496 | 10.85693 | 9461 ft | 136 kts | 146° |
| 2026-05-01 08:54 | 52.08651 | 10.86422 | 9462 ft | 138 kts | 146° |
| 2026-05-01 08:54 | 52.07797 | 10.87159 | 9454 ft | 139 kts | 146° |
| 2026-05-01 08:55 | 52.06943 | 10.87898 | 9450 ft | 139 kts | 146° |
| 2026-05-01 08:55 | 52.06088 | 10.88642 | 9449 ft | 140 kts | 146° |
| 2026-05-01 08:55 | 52.05232 | 10.89384 | 9457 ft | 139 kts | 146° |
| 2026-05-01 08:55 | 52.04390 | 10.90110 | 9448 ft | 139 kts | 146° |
| 2026-05-01 08:56 | 52.03537 | 10.90847 | 9448 ft | 139 kts | 146° |
| 2026-05-01 08:56 | 52.02686 | 10.91581 | 9448 ft | 139 kts | 146° |
| 2026-05-01 08:56 | 52.01832 | 10.92317 | 9458 ft | 139 kts | 146° |
| 2026-05-01 08:56 | 52.00984 | 10.93051 | 9452 ft | 138 kts | 146° |
| 2026-05-01 08:57 | 52.00134 | 10.93785 | 9447 ft | 138 kts | 146° |
| 2026-05-01 08:57 | 51.99289 | 10.94516 | 9447 ft | 138 kts | 146° |
| 2026-05-01 08:57 | 51.98445 | 10.95246 | 9448 ft | 137 kts | 146° |
| 2026-05-01 08:57 | 51.97599 | 10.95976 | 9447 ft | 138 kts | 146° |
| 2026-05-01 08:58 | 51.96750 | 10.96709 | 9450 ft | 138 kts | 146° |
| 2026-05-01 08:58 | 51.95904 | 10.97438 | 9450 ft | 137 kts | 146° |
| 2026-05-01 08:58 | 51.95062 | 10.98163 | 9446 ft | 137 kts | 146° |
| 2026-05-01 08:58 | 51.94227 | 10.98882 | 9450 ft | 138 kts | 146° |
| 2026-05-01 08:59 | 51.93380 | 10.99612 | 9450 ft | 137 kts | 146° |
| 2026-05-01 08:59 | 51.92537 | 11.00338 | 9451 ft | 138 kts | 146° |
| 2026-05-01 08:59 | 51.91685 | 11.01068 | 9451 ft | 138 kts | 146° |
| 2026-05-01 08:59 | 51.90836 | 11.01796 | 9449 ft | 138 kts | 146° |
| 2026-05-01 09:00 | 51.89991 | 11.02521 | 9448 ft | 137 kts | 146° |
| 2026-05-01 09:00 | 51.89145 | 11.03247 | 9452 ft | 137 kts | 146° |
| 2026-05-01 09:00 | 51.88305 | 11.03971 | 9450 ft | 137 kts | 146° |
| 2026-05-01 09:00 | 51.87473 | 11.04687 | 9459 ft | 137 kts | 146° |
| 2026-05-01 09:01 | 51.86631 | 11.05410 | 9451 ft | 137 kts | 146° |
| 2026-05-01 09:01 | 51.85787 | 11.06134 | 9451 ft | 138 kts | 146° |
| 2026-05-01 09:01 | 51.84938 | 11.06860 | 9451 ft | 138 kts | 146° |
| 2026-05-01 09:01 | 51.84086 | 11.07590 | 9449 ft | 139 kts | 146° |
| 2026-05-01 09:02 | 51.83234 | 11.08321 | 9450 ft | 139 kts | 146° |
| 2026-05-01 09:02 | 51.82382 | 11.09051 | 9450 ft | 138 kts | 146° |
| 2026-05-01 09:02 | 51.81534 | 11.09776 | 9448 ft | 138 kts | 146° |
| 2026-05-01 09:02 | 51.80686 | 11.10502 | 9450 ft | 138 kts | 146° |
| 2026-05-01 09:03 | 51.79838 | 11.11228 | 9450 ft | 138 kts | 146° |
| 2026-05-01 09:03 | 51.78989 | 11.11955 | 9449 ft | 138 kts | 146° |
| 2026-05-01 09:03 | 51.78139 | 11.12679 | 9447 ft | 138 kts | 146° |
| 2026-05-01 09:03 | 51.77293 | 11.13401 | 9450 ft | 137 kts | 146° |
| 2026-05-01 09:04 | 51.76447 | 11.14122 | 9453 ft | 138 kts | 146° |
| 2026-05-01 09:04 | 51.75600 | 11.14846 | 9453 ft | 138 kts | 146° |
| 2026-05-01 09:04 | 51.74754 | 11.15569 | 9456 ft | 137 kts | 146° |
| 2026-05-01 09:04 | 51.73908 | 11.16292 | 9456 ft | 137 kts | 146° |
| 2026-05-01 09:05 | 51.73065 | 11.17010 | 9452 ft | 137 kts | 146° |
| 2026-05-01 09:05 | 51.72221 | 11.17728 | 9455 ft | 137 kts | 146° |
| 2026-05-01 09:05 | 51.71385 | 11.18439 | 9455 ft | 138 kts | 146° |
| 2026-05-01 09:05 | 51.70536 | 11.19159 | 9454 ft | 138 kts | 146° |
| 2026-05-01 09:06 | 51.69688 | 11.19878 | 9457 ft | 138 kts | 146° |
| 2026-05-01 09:06 | 51.68831 | 11.20603 | 9455 ft | 140 kts | 146° |
| 2026-05-01 09:06 | 51.67972 | 11.21331 | 9455 ft | 139 kts | 146° |
| 2026-05-01 09:06 | 51.67113 | 11.22063 | 9454 ft | 139 kts | 146° |
| 2026-05-01 09:07 | 51.66259 | 11.22792 | 9455 ft | 139 kts | 146° |
| 2026-05-01 09:07 | 51.65402 | 11.23518 | 9452 ft | 139 kts | 146° |
| 2026-05-01 09:07 | 51.64546 | 11.24241 | 9456 ft | 139 kts | 146° |
| 2026-05-01 09:07 | 51.63685 | 11.24974 | 9456 ft | 140 kts | 146° |
| 2026-05-01 09:08 | 51.62830 | 11.25702 | 9463 ft | 139 kts | 146° |
| 2026-05-01 09:08 | 51.61967 | 11.26410 | 9466 ft | 139 kts | 149° |
| 2026-05-01 09:08 | 51.61068 | 11.26953 | 9461 ft | 140 kts | 153° |
| 2026-05-01 09:08 | 51.60148 | 11.27490 | 9462 ft | 140 kts | 153° |
| 2026-05-01 09:09 | 51.59230 | 11.28033 | 9463 ft | 141 kts | 153° |
| 2026-05-01 09:09 | 51.58311 | 11.28576 | 9464 ft | 141 kts | 153° |
| 2026-05-01 09:09 | 51.57391 | 11.29118 | 9462 ft | 141 kts | 153° |
| 2026-05-01 09:09 | 51.56467 | 11.29658 | 9461 ft | 141 kts | 153° |
| 2026-05-01 09:10 | 51.55549 | 11.30195 | 9461 ft | 140 kts | 153° |
| 2026-05-01 09:10 | 51.54632 | 11.30729 | 9464 ft | 140 kts | 153° |
| 2026-05-01 09:10 | 51.53711 | 11.31265 | 9463 ft | 140 kts | 153° |
| 2026-05-01 09:10 | 51.52805 | 11.31794 | 9463 ft | 140 kts | 153° |
| 2026-05-01 09:11 | 51.51887 | 11.32329 | 9462 ft | 140 kts | 153° |
| 2026-05-01 09:11 | 51.50967 | 11.32867 | 9462 ft | 141 kts | 153° |
| 2026-05-01 09:11 | 51.50047 | 11.33403 | 9462 ft | 141 kts | 153° |
| 2026-05-01 09:11 | 51.49122 | 11.33942 | 9460 ft | 141 kts | 153° |
| 2026-05-01 09:12 | 51.48201 | 11.34480 | 9461 ft | 141 kts | 153° |
| 2026-05-01 09:12 | 51.47280 | 11.35018 | 9460 ft | 141 kts | 153° |
| 2026-05-01 09:12 | 51.46357 | 11.35557 | 9459 ft | 141 kts | 153° |
| 2026-05-01 09:12 | 51.45437 | 11.36092 | 9460 ft | 140 kts | 153° |
| 2026-05-01 09:13 | 51.44519 | 11.36623 | 9462 ft | 141 kts | 153° |
| 2026-05-01 09:13 | 51.43598 | 11.37158 | 9461 ft | 141 kts | 153° |
| 2026-05-01 09:13 | 51.42676 | 11.37694 | 9461 ft | 141 kts | 153° |
| 2026-05-01 09:13 | 51.41757 | 11.38228 | 9463 ft | 140 kts | 153° |
| 2026-05-01 09:14 | 51.40838 | 11.38759 | 9462 ft | 140 kts | 153° |
| 2026-05-01 09:14 | 51.39930 | 11.39286 | 9463 ft | 140 kts | 153° |
| 2026-05-01 09:14 | 51.39012 | 11.39817 | 9462 ft | 140 kts | 153° |
| 2026-05-01 09:14 | 51.38090 | 11.40353 | 9463 ft | 141 kts | 153° |
| 2026-05-01 09:15 | 51.37170 | 11.40887 | 9464 ft | 140 kts | 153° |
| 2026-05-01 09:15 | 51.36253 | 11.41419 | 9465 ft | 140 kts | 153° |
| 2026-05-01 09:15 | 51.35337 | 11.41950 | 9464 ft | 140 kts | 153° |
| 2026-05-01 09:15 | 51.34416 | 11.42483 | 9466 ft | 141 kts | 153° |
| 2026-05-01 09:16 | 51.33495 | 11.43016 | 9464 ft | 140 kts | 153° |
| 2026-05-01 09:16 | 51.32578 | 11.43547 | 9461 ft | 140 kts | 153° |
| 2026-05-01 09:16 | 51.31665 | 11.44075 | 9464 ft | 139 kts | 153° |
| 2026-05-01 09:17 | 51.29824 | 11.45139 | 9465 ft | 141 kts | 153° |
| 2026-05-01 09:17 | 51.28900 | 11.45672 | 9463 ft | 142 kts | 153° |
| 2026-05-01 09:17 | 51.27058 | 11.46733 | 9463 ft | 141 kts | 153° |
| 2026-05-01 09:18 | 51.26133 | 11.47267 | 9463 ft | 141 kts | 153° |
| 2026-05-01 09:18 | 51.24586 | 11.48158 | 9461 ft | 141 kts | 153° |
| 2026-05-01 09:19 | 51.22745 | 11.49219 | 9463 ft | 141 kts | 153° |
| 2026-05-01 09:19 | 51.21818 | 11.49752 | 9463 ft | 142 kts | 153° |
| 2026-05-01 09:19 | 51.20897 | 11.50281 | 9464 ft | 142 kts | 153° |
| 2026-05-01 09:20 | 51.19032 | 11.51350 | 9463 ft | 142 kts | 153° |
| 2026-05-01 09:20 | 51.17171 | 11.52424 | 9464 ft | 142 kts | 153° |
| 2026-05-01 09:21 | 51.15304 | 11.53494 | 9463 ft | 143 kts | 153° |
| 2026-05-01 09:21 | 51.14369 | 11.54029 | 9463 ft | 143 kts | 153° |
| 2026-05-01 09:21 | 51.12508 | 11.55096 | 9462 ft | 141 kts | 153° |
| 2026-05-01 09:22 | 51.10642 | 11.56043 | 9461 ft | 142 kts | 160° |
| 2026-05-01 09:22 | 51.08699 | 11.56740 | 9460 ft | 143 kts | 160° |
| 2026-05-01 09:23 | 51.07728 | 11.57088 | 9463 ft | 144 kts | 160° |
| 2026-05-01 09:23 | 51.05789 | 11.57778 | 9463 ft | 143 kts | 160° |
| 2026-05-01 09:24 | 51.03840 | 11.58471 | 9460 ft | 144 kts | 160° |
| 2026-05-01 09:24 | 51.02863 | 11.58819 | 9460 ft | 144 kts | 160° |
| 2026-05-01 09:24 | 51.00915 | 11.59506 | 9460 ft | 143 kts | 160° |
| 2026-05-01 09:25 | 50.98948 | 11.59959 | 9461 ft | 145 kts | 172° |
| 2026-05-01 09:25 | 50.96922 | 11.60011 | 9460 ft | 146 kts | 171° |
| 2026-05-01 09:26 | 50.95902 | 11.60040 | 9461 ft | 147 kts | 171° |
| 2026-05-01 09:26 | 50.93860 | 11.60095 | 9459 ft | 147 kts | 171° |
| 2026-05-01 09:26 | 50.92835 | 11.60122 | 9458 ft | 147 kts | 172° |
| 2026-05-01 09:27 | 50.90786 | 11.60182 | 9399 ft | 149 kts | 172° |
| 2026-05-01 09:27 | 50.89743 | 11.60211 | 9336 ft | 150 kts | 172° |
| 2026-05-01 09:27 | 50.88703 | 11.60238 | 9254 ft | 151 kts | 172° |
| 2026-05-01 09:28 | 50.87651 | 11.60262 | 9182 ft | 150 kts | 172° |
| 2026-05-01 09:28 | 50.86612 | 11.60284 | 9138 ft | 149 kts | 172° |
| 2026-05-01 09:28 | 50.85562 | 11.60314 | 9049 ft | 152 kts | 172° |
| 2026-05-01 09:28 | 50.84510 | 11.60344 | 9000 ft | 151 kts | 172° |
| 2026-05-01 09:29 | 50.82391 | 11.60408 | 8793 ft | 156 kts | 172° |
| 2026-05-01 09:29 | 50.81302 | 11.60435 | 8726 ft | 154 kts | 173° |
| 2026-05-01 09:30 | 50.79168 | 11.60490 | 8529 ft | 156 kts | 173° |
| 2026-05-01 09:30 | 50.78093 | 11.60518 | 8464 ft | 154 kts | 173° |
| 2026-05-01 09:30 | 50.75958 | 11.60564 | 8305 ft | 153 kts | 173° |
| 2026-05-01 09:31 | 50.74897 | 11.60594 | 8230 ft | 152 kts | 173° |
| 2026-05-01 09:31 | 50.73841 | 11.60620 | 8135 ft | 152 kts | 172° |
| 2026-05-01 09:31 | 50.71726 | 11.60679 | 7937 ft | 153 kts | 173° |
| 2026-05-01 09:32 | 50.70659 | 11.60707 | 7875 ft | 152 kts | 173° |
| 2026-05-01 09:32 | 50.68510 | 11.60767 | 7618 ft | 156 kts | 173° |
| 2026-05-01 09:32 | 50.67427 | 11.60798 | 7496 ft | 155 kts | 173° |
| 2026-05-01 09:33 | 50.66345 | 11.60825 | 7385 ft | 155 kts | 173° |
| 2026-05-01 09:33 | 50.65266 | 11.60856 | 7271 ft | 155 kts | 173° |
| 2026-05-01 09:33 | 50.63125 | 11.60905 | 7066 ft | 154 kts | 173° |
| 2026-05-01 09:34 | 50.62056 | 11.60932 | 6961 ft | 154 kts | 173° |
| 2026-05-01 09:34 | 50.60990 | 11.60961 | 6858 ft | 153 kts | 173° |
| 2026-05-01 09:34 | 50.58864 | 11.61014 | 6635 ft | 152 kts | 173° |
| 2026-05-01 09:35 | 50.57808 | 11.61043 | 6533 ft | 152 kts | 173° |
| 2026-05-01 09:35 | 50.55687 | 11.61102 | 6322 ft | 152 kts | 174° |
| 2026-05-01 09:35 | 50.54633 | 11.61128 | 6232 ft | 151 kts | 174° |
| 2026-05-01 09:36 | 50.53587 | 11.61153 | 6138 ft | 150 kts | 174° |
| 2026-05-01 09:36 | 50.52549 | 11.61182 | 6073 ft | 149 kts | 174° |
| 2026-05-01 09:36 | 50.51511 | 11.61211 | 5972 ft | 149 kts | 174° |
| 2026-05-01 09:36 | 50.50475 | 11.61236 | 5870 ft | 149 kts | 174° |
| 2026-05-01 09:37 | 50.49437 | 11.61264 | 5811 ft | 149 kts | 174° |
| 2026-05-01 09:37 | 50.47379 | 11.61320 | 5625 ft | 148 kts | 174° |
| 2026-05-01 09:37 | 50.46355 | 11.61343 | 5548 ft | 147 kts | 174° |
| 2026-05-01 09:38 | 50.44309 | 11.61404 | 5323 ft | 146 kts | 175° |
| 2026-05-01 09:38 | 50.43307 | 11.61428 | 5249 ft | 145 kts | 174° |
| 2026-05-01 09:38 | 50.42300 | 11.61444 | 5124 ft | 145 kts | 174° |
| 2026-05-01 09:39 | 50.40291 | 11.61495 | 4965 ft | 144 kts | 174° |
| 2026-05-01 09:39 | 50.39275 | 11.61539 | 4823 ft | 147 kts | 174° |
| 2026-05-01 09:39 | 50.38253 | 11.61560 | 4723 ft | 145 kts | 174° |
| 2026-05-01 09:40 | 50.37245 | 11.61586 | 4635 ft | 146 kts | 174° |
| 2026-05-01 09:40 | 50.35204 | 11.61651 | 4477 ft | 146 kts | 176° |
| 2026-05-01 09:40 | 50.34181 | 11.61671 | 4341 ft | 147 kts | 176° |
| 2026-05-01 09:41 | 50.33158 | 11.61693 | 4277 ft | 146 kts | 176° |
| 2026-05-01 09:41 | 50.31148 | 11.61817 | 4066 ft | 138 kts | 174° |
| 2026-05-01 09:41 | 50.30206 | 11.61881 | 4030 ft | 135 kts | 174° |
| 2026-05-01 09:42 | 50.29296 | 11.62141 | 4032 ft | 131 kts | 155° |
| 2026-05-01 09:42 | 50.28594 | 11.62977 | 3993 ft | 126 kts | 124° |
| 2026-05-01 09:42 | 50.28254 | 11.65593 | 3890 ft | 124 kts | 91° |
| 2026-05-01 09:43 | 50.28259 | 11.68264 | 3800 ft | 118 kts | 92° |
| 2026-05-01 09:43 | 50.28263 | 11.69532 | 3784 ft | 114 kts | 89° |
| 2026-05-01 09:43 | 50.28317 | 11.70755 | 3777 ft | 111 kts | 87° |
| 2026-05-01 09:44 | 50.28398 | 11.73099 | 3744 ft | 102 kts | 94° |
| 2026-05-01 09:44 | 50.28387 | 11.74156 | 3609 ft | 104 kts | 91° |
| 2026-05-01 09:44 | 50.28412 | 11.75248 | 3556 ft | 98 kts | 86° |
| 2026-05-01 09:45 | 50.28523 | 11.76316 | 3384 ft | 100 kts | 87° |
| 2026-05-01 09:45 | 50.28650 | 11.78455 | 3056 ft | 97 kts | 91° |
| 2026-05-01 09:45 | 50.28632 | 11.79512 | 2845 ft | 98 kts | 94° |
| 2026-05-01 09:46 | 50.28638 | 11.80554 | 2621 ft | 97 kts | 88° |
| 2026-05-01 09:46 | 50.28710 | 11.81594 | 2420 ft | 95 kts | 85° |
| 2026-05-01 09:46 | 50.28775 | 11.82628 | 2240 ft | 93 kts | 90° |
| 2026-05-01 09:46 | 50.28801 | 11.83621 | 2102 ft | 89 kts | 90° |
| 2026-05-01 09:47 | 50.28834 | 11.84515 | 1978 ft | 74 kts | 91° |
| 2026-05-01 09:47 | 50.28852 | 11.85182 | 1946 ft | 48 kts | 87° |
| 2026-05-01 09:47 | 50.28873 | 11.85617 | 1924 ft | 34 kts | 86° |
| 2026-05-01 09:47 | 50.28881 | 11.85935 | 1908 ft | 25 kts | 91° |
| 2026-05-01 09:48 | 50.28893 | 11.86173 | 1898 ft | 22 kts | 86° |
| 2026-05-01 09:48 | 50.28901 | 11.86406 | 1898 ft | 18 kts | 88° |
| 2026-05-01 09:48 | 50.28876 | 11.86497 | 1896 ft | 8 kts | 148° |
| 2026-05-01 09:48 | 50.28838 | 11.86516 | 1899 ft | 6 kts | 184° |
| 2026-05-01 09:49 | 50.28804 | 11.86521 | 1897 ft | 5 kts | 154° |
| 2026-05-01 09:49 | 50.28791 | 11.86574 | 1900 ft | 5 kts | 50° |
| 2026-05-01 09:49 | 50.28803 | 11.86588 | 1900 ft | 2 kts | 96° |
| 2026-05-01 09:49 | 50.28798 | 11.86594 | 1900 ft | 0 kts | 175° |